Time;durP1;ratioP1;P1;durP2;ratioP2;P2;SDS_P1;SDS_P2;PMS_P1;PMS_P2;Temp;Humidity;BMP_temperature;BMP_pressure;BME280_temperature;BME280_humidity;BME280_pressure;Samples;Min_cycle;Max_cycle;Signal;HPM_P1;HPM_P2
2022/11/19 00:00:49;;;;;;;;;;;18.50;43.40;17.30;100642.00;;;;5051905;28;19916;-68
2022/11/19 00:03:18;;;;;;;;;;;18.50;43.40;17.30;100642.00;;;;5051605;28;19916;-69
2022/11/19 00:05:45;;;;;;;;;;;18.50;43.40;17.20;100640.00;;;;5050639;28;19921;-68
2022/11/19 00:08:12;;;;;;;;;;;18.50;43.40;17.30;100631.00;;;;5053482;28;19914;-68
2022/11/19 00:10:38;;;;;;;;;;;18.50;43.30;17.20;100640.00;;;;5053820;28;20429;-68
2022/11/19 00:13:04;;;;;;;;;;;18.50;43.40;17.20;100632.00;;;;5054884;28;19919;-69
2022/11/19 00:15:30;;;;;;;;;;;18.50;43.30;17.20;100639.00;;;;5035494;28;19941;-68
2022/11/19 00:17:57;;;;;;;;;;;18.50;43.30;17.20;100631.00;;;;5055819;28;19913;-68
2022/11/19 00:20:22;;;;;;;;;;;18.50;43.30;17.20;100641.00;;;;5036253;28;20358;-69
2022/11/19 00:22:52;;;;;;;;;;;18.50;43.30;17.20;100638.00;;;;5054052;28;19998;-69
2022/11/19 00:25:19;;;;;;;;;;;18.50;43.30;17.20;100646.00;;;;5034715;28;19913;-69
2022/11/19 00:27:44;;;;;;;;;;;18.40;43.30;17.20;100649.00;;;;5036691;28;19966;-69
2022/11/19 00:30:10;;;;;;;;;;;18.60;43.30;17.20;100643.00;;;;5051753;28;19924;-69
2022/11/19 00:32:36;;;;;;;;;;;18.40;43.20;17.20;100648.00;;;;5034999;28;19939;-68
2022/11/19 00:35:02;;;;;;;;;;;18.40;43.20;17.20;100641.00;;;;5051050;28;19912;-69
2022/11/19 00:37:28;;;;;;;;;;;18.40;43.20;17.20;100645.00;;;;5033983;28;19935;-69
2022/11/19 00:39:54;;;;;;;;;;;18.50;43.30;17.20;100642.00;;;;5055980;28;19913;-69
2022/11/19 00:42:20;;;;;;;;;;;18.40;43.20;17.20;100647.00;;;;5052019;28;19920;-68
2022/11/19 00:44:45;;;;;;;;;;;18.40;43.20;17.20;100645.00;;;;5056718;28;20002;-68
2022/11/19 00:47:11;;;;;;;;;;;18.40;43.20;17.20;100643.00;;;;5048218;28;19924;-69
2022/11/19 00:49:37;;;;;;;;;;;18.40;43.10;17.20;100642.00;;;;5034693;28;20270;-68
2022/11/19 00:52:02;;;;;;;;;;;18.40;43.10;17.20;100646.00;;;;5051549;28;19915;-69
2022/11/19 00:54:28;;;;;;;;;;;18.40;43.10;17.20;100647.00;;;;5052535;28;20347;-69
2022/11/19 00:56:54;;;;;;;;;;;18.40;43.10;17.20;100649.00;;;;5050731;28;19912;-68
2022/11/19 00:59:19;;;;;;;;;;;18.40;43.10;17.20;100650.00;;;;5051973;28;19920;-69
2022/11/19 01:01:45;;;;;;;;;;;18.40;43.10;17.20;100649.00;;;;5053140;28;19917;-69
2022/11/19 01:04:11;;;;;;;;;;;18.40;43.10;17.20;100662.00;;;;5033495;28;19916;-68
2022/11/19 01:06:36;;;;;;;;;;;18.50;43.10;17.10;100662.00;;;;5049902;28;19968;-68
2022/11/19 01:09:02;;;;;;;;;;;18.40;43.10;17.10;100657.00;;;;5053843;28;19909;-69
2022/11/19 01:11:29;;;;;;;;;;;18.40;43.10;17.10;100661.00;;;;5033994;28;19959;-69
2022/11/19 01:13:55;;;;;;;;;;;18.40;43.10;17.10;100664.00;;;;5037486;28;19991;-69
2022/11/19 01:16:22;;;;;;;;;;;18.40;43.10;17.10;100666.00;;;;5029075;28;19962;-69
2022/11/19 01:18:47;;;;;;;;;;;18.40;43.10;17.10;100666.00;;;;5036573;28;19935;-69
2022/11/19 01:21:13;;;;;;;;;;;18.30;43.00;17.10;100670.00;;;;5057121;28;19917;-69
2022/11/19 01:23:39;;;;;;;;;;;18.40;43.00;17.10;100674.00;;;;5035892;28;19961;-68
2022/11/19 01:26:05;;;;;;;;;;;18.30;43.00;17.10;100673.00;;;;5050940;28;19936;-69
2022/11/19 01:28:31;;;;;;;;;;;18.30;43.00;17.10;100683.00;;;;5035376;28;20346;-69
2022/11/19 01:30:57;;;;;;;;;;;18.40;43.00;17.10;100689.00;;;;5055648;28;20087;-68
2022/11/19 01:33:22;;;;;;;;;;;18.30;43.00;17.10;100690.00;;;;5049795;28;20265;-68
2022/11/19 01:36:02;;;;;;;;;;;18.30;42.90;17.10;100690.00;;;;5055973;28;19958;-68
2022/11/19 01:38:28;;;;;;;;;;;18.30;42.90;17.10;100690.00;;;;5013470;28;19913;-68
2022/11/19 01:40:54;;;;;;;;;;;18.40;42.90;17.10;100691.00;;;;5049676;28;19913;-69
2022/11/19 01:43:20;;;;;;;;;;;18.30;42.90;17.10;100693.00;;;;5051741;28;20041;-69
2022/11/19 01:45:47;;;;;;;;;;;18.30;42.90;17.10;100691.00;;;;5033597;28;19913;-69
2022/11/19 01:48:19;;;;;;;;;;;18.40;42.90;17.10;100704.00;;;;5034398;28;19916;-68
2022/11/19 01:50:51;;;;;;;;;;;18.30;42.90;17.10;100712.00;;;;5036296;28;19913;-69
2022/11/19 01:53:18;;;;;;;;;;;18.30;42.90;17.10;100700.00;;;;5051871;28;19967;-68
2022/11/19 01:55:43;;;;;;;;;;;18.30;42.90;17.10;100697.00;;;;5052105;28;19912;-69
2022/11/19 01:58:09;;;;;;;;;;;18.30;42.90;17.00;100694.00;;;;5034030;28;19963;-69
2022/11/19 02:00:35;;;;;;;;;;;18.30;42.90;17.10;100700.00;;;;5033169;28;20127;-69
2022/11/19 02:03:00;;;;;;;;;;;18.40;42.90;17.10;100701.00;;;;5050035;28;20333;-69
2022/11/19 02:05:26;;;;;;;;;;;18.20;42.80;17.10;100702.00;;;;5047041;28;19909;-69
2022/11/19 02:07:53;;;;;;;;;;;18.30;42.80;17.10;100712.00;;;;5036599;28;19927;-69
2022/11/19 02:10:19;;;;;;;;;;;18.40;42.90;17.10;100714.00;;;;5047720;28;20355;-69
2022/11/19 02:12:52;;;;;;;;;;;18.30;42.80;17.00;100704.00;;;;5051049;28;19920;-69
2022/11/19 02:15:53;;;;;;;;;;;18.20;42.80;17.10;100713.00;;;;5026786;28;20153;-68
2022/11/19 02:18:21;;;;;;;;;;;18.30;42.80;17.00;100714.00;;;;5049152;28;19919;-68
2022/11/19 02:20:55;;;;;;;;;;;18.30;42.80;17.00;100710.00;;;;5038800;28;20355;-69
2022/11/19 02:23:39;;;;;;;;;;;18.30;42.80;17.00;100716.00;;;;5053891;28;19921;-69
2022/11/19 02:26:42;;;;;;;;;;;18.20;42.70;17.00;100722.00;;;;5056726;28;20381;-69
2022/11/19 02:29:26;;;;;;;;;;;18.30;42.80;17.00;100721.00;;;;5051573;28;19912;-68
2022/11/19 02:32:11;;;;;;;;;;;18.30;42.80;17.00;100728.00;;;;5056870;28;19931;-68
2022/11/19 02:34:40;;;;;;;;;;;18.20;42.70;17.00;100719.00;;;;5052406;28;20115;-68
2022/11/19 02:37:10;;;;;;;;;;;18.30;42.80;17.00;100715.00;;;;5038003;28;19920;-68
2022/11/19 02:39:38;;;;;;;;;;;18.20;42.70;17.00;100722.00;;;;5037685;28;19956;-68
2022/11/19 02:42:13;;;;;;;;;;;18.20;42.60;17.00;100724.00;;;;5035644;28;19917;-68
2022/11/19 02:44:58;;;;;;;;;;;18.20;42.70;17.00;100725.00;;;;5036810;28;20370;-69
2022/11/19 02:47:32;;;;;;;;;;;18.20;42.60;17.00;100730.00;;;;5053358;28;19909;-69
2022/11/19 02:50:02;;;;;;;;;;;18.20;42.60;17.00;100729.00;;;;5039201;28;19908;-68
2022/11/19 02:52:28;;;;;;;;;;;18.20;42.70;17.00;100737.00;;;;5035262;28;19920;-68
2022/11/19 02:54:53;;;;;;;;;;;18.20;42.60;17.00;100730.00;;;;5052284;28;19932;-69
2022/11/19 02:57:19;;;;;;;;;;;18.20;42.70;17.00;100735.00;;;;5036960;28;19915;-68
2022/11/19 03:05:32;;;;;;;;;;;18.30;42.60;16.90;100756.00;;;;5035883;28;19923;-69
2022/11/19 03:07:58;;;;;;;;;;;18.20;42.60;16.90;100754.00;;;;5038496;28;20357;-69
2022/11/19 03:10:26;;;;;;;;;;;18.20;42.50;16.90;100758.00;;;;5015605;28;19974;-69
2022/11/19 03:16:40;;;;;;;;;;;18.20;42.50;16.90;100759.00;;;;5039399;28;19916;-69
2022/11/19 03:18:54;;;;;;;;;;;18.10;42.50;16.90;100759.00;;;;5041664;28;20009;-69
2022/11/19 03:21:58;;;;;;;;;;;18.20;42.60;16.90;100763.00;;;;5034475;28;19917;-69
2022/11/19 03:24:31;;;;;;;;;;;18.20;42.50;16.90;100751.00;;;;5052817;28;20051;-69
2022/11/19 03:27:19;;;;;;;;;;;18.20;42.50;16.90;100757.00;;;;5036771;28;19912;-68
2022/11/19 03:29:46;;;;;;;;;;;18.20;42.50;16.90;100749.00;;;;5038211;28;19916;-68
2022/11/19 03:32:15;;;;;;;;;;;18.20;42.50;16.90;100754.00;;;;5034433;28;20365;-69
2022/11/19 03:34:41;;;;;;;;;;;18.20;42.50;16.90;100761.00;;;;5038569;28;20394;-69
2022/11/19 03:37:07;;;;;;;;;;;18.10;42.40;16.90;100753.00;;;;5034079;28;19920;-69
2022/11/19 03:39:34;;;;;;;;;;;18.20;42.40;16.90;100770.00;;;;5038734;28;20255;-69
2022/11/19 03:41:59;;;;;;;;;;;18.10;42.40;16.90;100765.00;;;;5049105;28;19916;-69
2022/11/19 03:44:46;;;;;;;;;;;18.10;42.40;16.90;100771.00;;;;5036688;28;20358;-69
2022/11/19 03:47:18;;;;;;;;;;;18.10;42.40;16.90;100764.00;;;;5037582;28;19927;-69
2022/11/19 03:49:45;;;;;;;;;;;18.10;42.40;16.90;100772.00;;;;5039862;28;19908;-69
2022/11/19 03:52:12;;;;;;;;;;;18.10;42.30;16.80;100774.00;;;;5035603;28;20370;-68
2022/11/19 03:54:38;;;;;;;;;;;18.10;42.30;16.80;100773.00;;;;5055749;28;19908;-68
2022/11/19 03:57:05;;;;;;;;;;;18.10;42.30;16.80;100780.00;;;;5035593;28;20059;-68
2022/11/19 03:59:31;;;;;;;;;;;18.00;42.30;16.80;100792.00;;;;5037217;28;19920;-68
2022/11/19 04:01:59;;;;;;;;;;;18.10;42.30;16.80;100791.00;;;;5053047;28;20353;-68
2022/11/19 04:04:36;;;;;;;;;;;18.10;42.30;16.80;100808.00;;;;5021630;28;19909;-68
2022/11/19 04:07:12;;;;;;;;;;;18.10;42.30;16.80;100802.00;;;;5051936;28;19948;-68
2022/11/19 04:09:38;;;;;;;;;;;18.10;42.30;16.80;100801.00;;;;5056019;28;20003;-68
2022/11/19 04:12:05;;;;;;;;;;;18.10;42.20;16.80;100805.00;;;;5050965;28;19919;-68
2022/11/19 04:14:30;;;;;;;;;;;18.10;42.30;16.80;100809.00;;;;5038343;28;19912;-69
2022/11/19 04:16:56;;;;;;;;;;;18.10;42.20;16.80;100803.00;;;;5054620;28;19913;-69
2022/11/19 04:19:22;;;;;;;;;;;18.00;42.20;16.80;100808.00;;;;5055410;28;19908;-68
2022/11/19 04:21:47;;;;;;;;;;;18.00;42.20;16.80;100808.00;;;;5034649;28;19937;-68
2022/11/19 04:24:13;;;;;;;;;;;18.00;42.10;16.80;100813.00;;;;5055748;28;19912;-68
2022/11/19 04:26:39;;;;;;;;;;;18.00;42.10;16.80;100818.00;;;;5052554;28;20405;-69
2022/11/19 04:29:05;;;;;;;;;;;18.00;42.10;16.80;100820.00;;;;5055845;28;19912;-68
2022/11/19 04:31:30;;;;;;;;;;;18.00;42.10;16.80;100818.00;;;;5049745;28;20047;-69
2022/11/19 04:33:56;;;;;;;;;;;18.00;42.20;16.80;100819.00;;;;5056887;28;19909;-69
2022/11/19 04:36:22;;;;;;;;;;;18.10;42.20;16.80;100824.00;;;;5051970;28;19913;-68
2022/11/19 04:38:47;;;;;;;;;;;18.00;42.20;16.80;100829.00;;;;5055914;28;19917;-68
2022/11/19 04:41:13;;;;;;;;;;;18.00;42.10;16.80;100830.00;;;;5051341;28;19947;-69
2022/11/19 04:43:39;;;;;;;;;;;18.00;42.10;16.70;100831.00;;;;5055579;28;19909;-69
2022/11/19 04:46:04;;;;;;;;;;;18.00;42.10;16.70;100831.00;;;;5052286;28;20347;-69
2022/11/19 04:48:30;;;;;;;;;;;18.00;42.10;16.70;100831.00;;;;5055134;28;19909;-69
2022/11/19 04:50:56;;;;;;;;;;;17.90;42.70;16.70;100833.00;;;;5054349;28;19912;-69
2022/11/19 04:53:21;;;;;;;;;;;17.90;42.00;16.70;100834.00;;;;5036019;28;19915;-69
2022/11/19 04:55:47;;;;;;;;;;;18.00;42.10;16.70;100833.00;;;;5036549;28;19916;-68
2022/11/19 04:58:13;;;;;;;;;;;18.00;42.10;16.70;100843.00;;;;5054171;28;19908;-68
2022/11/19 05:00:38;;;;;;;;;;;18.00;42.10;16.70;100831.00;;;;5051466;28;19923;-69
2022/11/19 05:03:04;;;;;;;;;;;18.00;42.00;16.70;100846.00;;;;5034940;28;20282;-68
2022/11/19 05:05:30;;;;;;;;;;;18.00;42.00;16.70;100847.00;;;;5054343;28;19909;-68
2022/11/19 05:07:55;;;;;;;;;;;18.00;42.00;16.70;100850.00;;;;5052156;28;19912;-69
2022/11/19 05:10:21;;;;;;;;;;;18.00;42.00;16.70;100845.00;;;;5049870;28;19920;-68
2022/11/19 05:12:47;;;;;;;;;;;18.00;42.00;16.70;100843.00;;;;5052934;28;20476;-69
2022/11/19 05:15:12;;;;;;;;;;;17.90;41.90;16.70;100845.00;;;;5053409;28;19912;-69
2022/11/19 05:17:38;;;;;;;;;;;18.00;42.70;16.70;100845.00;;;;5034694;28;19913;-69
2022/11/19 05:20:04;;;;;;;;;;;17.90;41.90;16.70;100845.00;;;;5054230;28;19916;-69
2022/11/19 05:22:30;;;;;;;;;;;17.90;41.90;16.70;100859.00;;;;5048290;28;19917;-69
2022/11/19 05:24:55;;;;;;;;;;;17.90;41.90;16.70;100850.00;;;;5052028;28;19920;-68
2022/11/19 05:27:21;;;;;;;;;;;17.90;41.90;16.70;100866.00;;;;5032321;28;19917;-69
2022/11/19 05:29:47;;;;;;;;;;;17.90;41.80;16.70;100860.00;;;;5038271;28;19909;-69
2022/11/19 05:32:12;;;;;;;;;;;17.90;41.80;16.60;100862.00;;;;5048496;28;20274;-69
2022/11/19 05:34:38;;;;;;;;;;;18.00;41.90;16.70;100856.00;;;;5052736;28;20366;-68
2022/11/19 05:37:04;;;;;;;;;;;17.90;41.80;16.60;100860.00;;;;5049032;28;19920;-68
2022/11/19 05:39:29;;;;;;;;;;;18.00;41.90;16.70;100865.00;;;;5054464;28;19909;-68
2022/11/19 05:41:55;;;;;;;;;;;17.90;41.80;16.60;100865.00;;;;5048769;28;19924;-69
2022/11/19 05:44:21;;;;;;;;;;;17.90;41.80;16.60;100870.00;;;;5054006;28;19974;-69
2022/11/19 05:46:46;;;;;;;;;;;17.90;41.80;16.60;100868.00;;;;5049664;28;20325;-69
2022/11/19 05:49:12;;;;;;;;;;;17.90;41.80;16.60;100867.00;;;;5052441;28;19917;-69
2022/11/19 05:51:38;;;;;;;;;;;17.90;41.80;16.60;100866.00;;;;5049844;28;19913;-69
2022/11/19 05:54:03;;;;;;;;;;;17.90;41.70;16.60;100871.00;;;;5019100;28;20286;-69
2022/11/19 05:56:29;;;;;;;;;;;17.80;41.70;16.60;100876.00;;;;5050620;28;19913;-69
2022/11/19 05:58:55;;;;;;;;;;;17.90;41.70;16.60;100875.00;;;;5054388;28;19915;-69
2022/11/19 06:01:27;;;;;;;;;;;17.80;41.70;16.60;100879.00;;;;5047365;28;19921;-69
2022/11/19 06:03:53;;;;;;;;;;;17.80;41.70;16.60;100881.00;;;;5035780;28;20362;-68
2022/11/19 06:06:19;;;;;;;;;;;17.90;41.70;16.60;100890.00;;;;5049258;28;19909;-69
2022/11/19 06:08:44;;;;;;;;;;;17.80;41.70;16.60;100891.00;;;;5034483;28;20362;-68
2022/11/19 06:11:46;;;;;;;;;;;17.80;41.60;16.60;100887.00;;;;5049036;28;19912;-68
2022/11/19 06:13:55;;;;;;;;;;;17.80;41.70;16.60;100889.00;;;;5055233;28;19919;-68
2022/11/19 06:16:21;;;;;;;;;;;17.80;41.60;16.60;100898.00;;;;5049891;28;19909;-68
2022/11/19 06:18:47;;;;;;;;;;;17.80;41.60;16.60;100914.00;;;;5050272;28;19920;-68
2022/11/19 06:21:13;;;;;;;;;;;18.00;41.70;16.60;100913.00;;;;5050986;28;20310;-68
2022/11/19 06:23:38;;;;;;;;;;;17.80;41.60;16.60;100914.00;;;;5035594;28;19913;-68
2022/11/19 06:26:06;;;;;;;;;;;17.80;41.60;16.50;100907.00;;;;5049679;28;19915;-69
2022/11/19 06:28:32;;;;;;;;;;;17.80;41.60;16.50;100918.00;;;;5035892;28;20310;-68
2022/11/19 06:30:57;;;;;;;;;;;17.80;41.60;16.50;100911.00;;;;5033311;28;19908;-68
2022/11/19 06:33:23;;;;;;;;;;;17.80;41.60;16.50;100915.00;;;;5052186;28;20502;-68
2022/11/19 06:35:49;;;;;;;;;;;17.80;41.50;16.50;100922.00;;;;5052328;28;19919;-68
2022/11/19 06:38:15;;;;;;;;;;;17.70;41.50;16.50;100922.00;;;;5052035;28;19913;-67
2022/11/19 06:40:40;;;;;;;;;;;17.80;41.50;16.50;100926.00;;;;5049824;28;19917;-68
2022/11/19 06:43:06;;;;;;;;;;;17.80;41.60;16.50;100931.00;;;;5035972;28;19916;-68
2022/11/19 06:45:32;;;;;;;;;;;17.80;41.50;16.50;100944.00;;;;5032871;28;19994;-67
2022/11/19 06:47:57;;;;;;;;;;;17.90;41.60;16.50;100950.00;;;;5052902;28;19908;-67
2022/11/19 06:50:23;;;;;;;;;;;17.80;41.50;16.50;100935.00;;;;5050267;28;20032;-67
2022/11/19 06:52:49;;;;;;;;;;;17.80;41.50;16.50;100948.00;;;;5052628;28;20290;-67
2022/11/19 06:55:14;;;;;;;;;;;17.80;41.50;16.50;100939.00;;;;5047849;28;19913;-67
2022/11/19 06:57:40;;;;;;;;;;;17.80;41.50;16.50;100941.00;;;;5052859;28;19968;-68
2022/11/19 07:00:06;;;;;;;;;;;17.80;41.40;16.50;100951.00;;;;5055520;28;19967;-68
2022/11/19 07:02:32;;;;;;;;;;;17.70;41.40;16.50;100953.00;;;;5033812;28;19978;-68
2022/11/19 07:04:57;;;;;;;;;;;17.70;41.40;16.50;100948.00;;;;5051144;28;19913;-68
2022/11/19 07:07:23;;;;;;;;;;;17.70;41.30;16.40;100959.00;;;;5056943;28;19932;-68
2022/11/19 07:09:49;;;;;;;;;;;17.70;41.30;16.40;100950.00;;;;5055278;28;19959;-68
2022/11/19 07:12:14;;;;;;;;;;;17.60;41.30;16.40;100952.00;;;;5054566;28;19913;-67
2022/11/19 07:14:40;;;;;;;;;;;17.70;41.30;16.40;100957.00;;;;5057669;28;19916;-68
2022/11/19 07:17:06;;;;;;;;;;;17.70;41.30;16.40;100954.00;;;;5052643;28;19913;-67
2022/11/19 07:19:31;;;;;;;;;;;17.70;41.30;16.40;100957.00;;;;5053646;28;20385;-67
2022/11/19 07:21:57;;;;;;;;;;;17.70;41.30;16.40;100959.00;;;;5056756;28;19923;-67
2022/11/19 07:24:23;;;;;;;;;;;17.70;41.30;16.40;100961.00;;;;5056938;28;19912;-68
2022/11/19 07:26:48;;;;;;;;;;;17.90;41.40;16.40;100959.00;;;;5052114;28;19912;-68
2022/11/19 07:29:14;;;;;;;;;;;17.70;41.20;16.40;100961.00;;;;5053203;28;19975;-67
2022/11/19 07:31:40;;;;;;;;;;;17.70;41.20;16.40;100970.00;;;;5052704;28;19913;-67
2022/11/19 07:34:07;;;;;;;;;;;17.70;41.20;16.40;100967.00;;;;5056339;28;19974;-68
2022/11/19 07:36:32;;;;;;;;;;;17.70;41.30;16.40;100960.00;;;;5053572;28;19916;-68
2022/11/19 07:38:58;;;;;;;;;;;17.70;41.20;16.40;100973.00;;;;5056918;28;20377;-68
2022/11/19 07:44:08;;;;;;;;;;;17.60;41.20;16.40;100975.00;;;;5055534;28;19931;-67
2022/11/19 07:46:34;;;;;;;;;;;17.70;41.20;16.40;100984.00;;;;5049348;28;19912;-67
2022/11/19 07:48:59;;;;;;;;;;;17.60;41.10;16.40;100984.00;;;;5034774;28;19912;-67
2022/11/19 07:51:25;;;;;;;;;;;17.60;41.20;16.40;100982.00;;;;5048567;28;19916;-67
2022/11/19 07:53:51;;;;;;;;;;;17.60;41.20;16.40;100990.00;;;;5053275;28;19917;-67
2022/11/19 07:56:17;;;;;;;;;;;17.70;41.20;16.40;100988.00;;;;5049563;28;19919;-67
2022/11/19 07:58:43;;;;;;;;;;;17.60;41.20;16.40;100990.00;;;;5054138;28;20014;-67
2022/11/19 08:01:13;;;;;;;;;;;17.60;41.10;16.40;100988.00;;;;5046064;28;20385;-67
2022/11/19 08:03:41;;;;;;;;;;;17.60;41.10;16.40;100991.00;;;;5052485;28;19912;-67
2022/11/19 08:06:07;;;;;;;;;;;17.60;41.10;16.40;100991.00;;;;5046485;28;19959;-68
2022/11/19 08:08:32;;;;;;;;;;;17.60;41.10;16.40;100998.00;;;;5054936;28;19908;-67
2022/11/19 08:11:05;;;;;;;;;;;17.60;41.10;16.30;101000.00;;;;5050416;28;19920;-68
2022/11/19 08:13:31;;;;;;;;;;;17.60;41.10;16.30;101009.00;;;;5042380;28;19916;-68
2022/11/19 08:16:03;;;;;;;;;;;17.60;41.00;16.30;101020.00;;;;5025787;28;19917;-66
2022/11/19 08:18:29;;;;;;;;;;;17.60;41.10;16.30;101020.00;;;;5034503;28;20037;-66
2022/11/19 08:20:55;;;;;;;;;;;17.60;41.00;16.30;101017.00;;;;5048068;28;20315;-66
2022/11/19 08:23:22;;;;;;;;;;;17.60;41.00;16.30;101015.00;;;;5027964;28;19924;-66
2022/11/19 08:25:48;;;;;;;;;;;17.60;41.00;16.30;101020.00;;;;5040595;28;19913;-66
2022/11/19 08:28:14;;;;;;;;;;;17.60;41.00;16.30;101020.00;;;;5049489;28;19909;-66
2022/11/19 08:30:40;;;;;;;;;;;17.60;41.00;16.30;101018.00;;;;5022679;28;19920;-66
2022/11/19 08:33:07;;;;;;;;;;;17.60;41.00;16.30;101014.00;;;;5047875;28;19912;-67
2022/11/19 08:35:33;;;;;;;;;;;17.60;41.00;16.30;101020.00;;;;5047597;28;19917;-67
2022/11/19 08:37:58;;;;;;;;;;;17.60;41.00;16.30;101015.00;;;;5050471;28;19919;-66
2022/11/19 08:40:24;;;;;;;;;;;17.50;40.80;16.30;101013.00;;;;5051091;28;19913;-67
2022/11/19 08:42:59;;;;;;;;;;;17.60;41.70;16.30;101021.00;;;;5048220;28;19923;-67
2022/11/19 08:45:32;;;;;;;;;;;17.60;40.90;16.30;101024.00;;;;5046069;28;20447;-68
2022/11/19 08:47:59;;;;;;;;;;;17.60;40.90;16.30;101015.00;;;;5047016;28;20019;-67
2022/11/19 08:50:25;;;;;;;;;;;17.60;40.90;16.30;101021.00;;;;5048239;28;20015;-67
2022/11/19 08:52:55;;;;;;;;;;;17.60;40.90;16.30;101032.00;;;;5035554;28;19920;-67
2022/11/19 08:55:21;;;;;;;;;;;17.60;40.80;16.30;101019.00;;;;5039692;28;19963;-67
2022/11/19 08:57:47;;;;;;;;;;;17.60;40.80;16.30;101022.00;;;;5053123;28;19913;-67
2022/11/19 09:00:13;;;;;;;;;;;17.60;40.80;16.30;101030.00;;;;5053545;28;19912;-67
2022/11/19 09:02:39;;;;;;;;;;;17.60;40.80;16.30;101031.00;;;;5052492;28;20411;-67
2022/11/19 09:05:05;;;;;;;;;;;17.60;40.80;16.30;101026.00;;;;5049535;28;19913;-67
2022/11/19 09:07:30;;;;;;;;;;;17.60;40.80;16.30;101039.00;;;;5034386;28;19990;-67
2022/11/19 09:09:56;;;;;;;;;;;17.60;40.80;16.30;101040.00;;;;5048566;28;19916;-67
2022/11/19 09:12:22;;;;;;;;;;;17.70;40.80;16.30;101041.00;;;;5048661;28;19936;-67
2022/11/19 09:14:49;;;;;;;;;;;17.60;40.80;16.30;101042.00;;;;5029840;28;19913;-72
2022/11/19 09:17:15;;;;;;;;;;;17.60;40.70;16.30;101042.00;;;;5046755;28;19912;-65
2022/11/19 09:19:40;;;;;;;;;;;17.70;40.80;16.30;101048.00;;;;5047932;28;20385;-65
2022/11/19 09:22:06;;;;;;;;;;;17.60;40.80;16.30;101042.00;;;;5040553;28;20263;-65
2022/11/19 09:24:32;;;;;;;;;;;17.60;40.80;16.30;101037.00;;;;5047362;28;19928;-65
2022/11/19 09:26:58;;;;;;;;;;;17.60;40.80;16.30;101046.00;;;;5051075;28;19912;-65
2022/11/19 09:29:23;;;;;;;;;;;17.60;40.70;16.30;101043.00;;;;5052963;28;19912;-66
2022/11/19 09:31:49;;;;;;;;;;;17.60;40.70;16.30;101052.00;;;;5048743;28;19920;-63
2022/11/19 09:34:14;;;;;;;;;;;17.60;40.70;16.30;101054.00;;;;5050669;28;20351;-63
2022/11/19 09:36:40;;;;;;;;;;;17.60;40.70;16.30;101057.00;;;;5050518;28;19916;-63
2022/11/19 09:39:06;;;;;;;;;;;17.60;40.70;16.30;101058.00;;;;5054779;28;19923;-64
2022/11/19 09:41:37;;;;;;;;;;;17.60;40.70;16.30;101061.00;;;;5050776;28;19921;-63
2022/11/19 09:44:08;;;;;;;;;;;17.60;40.70;16.30;101058.00;;;;5052341;28;19923;-62
2022/11/19 09:46:50;;;;;;;;;;;17.60;40.70;16.30;101055.00;;;;5048727;28;20374;-63
2022/11/19 09:49:20;;;;;;;;;;;17.60;40.70;16.30;101070.00;;;;5043757;28;20011;-62
2022/11/19 09:51:51;;;;;;;;;;;17.60;40.60;16.30;101067.00;;;;5046621;28;19975;-62
2022/11/19 09:54:17;;;;;;;;;;;17.60;40.60;16.30;101063.00;;;;5050621;28;19974;-63
2022/11/19 09:56:44;;;;;;;;;;;17.60;40.60;16.30;101063.00;;;;5029298;28;19999;-63
2022/11/19 09:59:15;;;;;;;;;;;17.60;40.60;16.30;101058.00;;;;5026843;28;19916;-64
2022/11/19 10:01:41;;;;;;;;;;;17.60;40.60;16.30;101061.00;;;;5030531;28;19927;-62
2022/11/19 10:04:08;;;;;;;;;;;17.50;40.50;16.30;101058.00;;;;5047115;28;20387;-63
2022/11/19 10:06:41;;;;;;;;;;;17.60;40.60;16.30;101057.00;;;;5044749;28;19912;-63
2022/11/19 10:09:25;;;;;;;;;;;17.60;40.50;16.30;101070.00;;;;5033120;28;19913;-62
2022/11/19 10:12:19;;;;;;;;;;;17.60;40.50;16.30;101076.00;;;;5048757;28;19920;-63
2022/11/19 10:14:50;;;;;;;;;;;17.60;40.60;16.30;101070.00;;;;5045414;28;19924;-63
2022/11/19 10:17:54;;;;;;;;;;;17.60;40.50;16.30;101068.00;;;;5040822;28;19912;-62
2022/11/19 10:20:39;;;;;;;;;;;17.60;40.60;16.30;101070.00;;;;5033881;28;20351;-62
2022/11/19 10:23:07;;;;;;;;;;;17.60;40.60;16.30;101076.00;;;;5017755;28;19924;-62
2022/11/19 10:26:03;;;;;;;;;;;17.60;40.50;16.30;101079.00;;;;5043134;28;19913;-62
2022/11/19 10:28:30;;;;;;;;;;;17.60;40.50;16.30;101067.00;;;;5047559;28;20363;-62
2022/11/19 10:31:03;;;;;;;;;;;17.60;40.50;16.30;101075.00;;;;5028616;28;20246;-66
2022/11/19 10:33:50;;;;;;;;;;;17.60;40.50;16.30;101082.00;;;;5012540;28;20008;-65
2022/11/19 10:36:23;;;;;;;;;;;17.60;40.50;16.30;101079.00;;;;5030263;28;19920;-65
2022/11/19 10:39:16;;;;;;;;;;;17.60;40.50;16.30;101077.00;;;;5028727;28;19923;-65
2022/11/19 10:41:58;;;;;;;;;;;17.60;40.50;16.30;101068.00;;;;5025423;28;19917;-65
2022/11/19 10:44:41;;;;;;;;;;;17.60;40.40;16.30;101068.00;;;;5031497;28;20377;-67
2022/11/19 10:47:32;;;;;;;;;;;17.60;40.40;16.30;101060.00;;;;5033922;28;19959;-71
2022/11/19 10:49:57;;;;;;;;;;;17.60;40.40;16.30;101060.00;;;;5031614;28;20277;-65
2022/11/19 10:52:32;;;;;;;;;;;17.60;40.50;16.30;101052.00;;;;5042920;28;19921;-68
2022/11/19 10:55:11;;;;;;;;;;;17.60;40.40;16.30;101059.00;;;;5029093;28;19920;-65
2022/11/19 10:57:37;;;;;;;;;;;17.60;40.40;16.30;101047.00;;;;5029628;28;19913;-65
2022/11/19 11:00:03;;;;;;;;;;;17.60;40.40;16.30;101050.00;;;;5035890;28;19920;-67
2022/11/19 11:02:32;;;;;;;;;;;17.60;40.40;16.30;101047.00;;;;5052278;28;19997;-65
2022/11/19 11:05:06;;;;;;;;;;;17.70;40.40;16.30;101048.00;;;;5034950;28;20022;-65
2022/11/19 11:07:45;;;;;;;;;;;17.60;40.40;16.30;101042.00;;;;5031086;28;19927;-65
2022/11/19 11:10:26;;;;;;;;;;;17.60;40.60;16.30;101043.00;;;;5031547;28;20270;-65
2022/11/19 11:15:44;;;;;;;;;;;17.60;40.20;16.30;101038.00;;;;5045898;28;19919;-65
2022/11/19 11:18:10;;;;;;;;;;;17.60;40.30;16.30;101040.00;;;;5034571;28;19939;-65
2022/11/19 11:20:36;;;;;;;;;;;17.60;40.20;16.30;101043.00;;;;5034912;28;19912;-65
2022/11/19 11:23:08;;;;;;;;;;;17.70;40.30;16.30;101045.00;;;;5052043;28;20346;-65
2022/11/19 11:25:34;;;;;;;;;;;17.70;40.30;16.30;101045.00;;;;5025790;28;20032;-66
2022/11/19 11:28:04;;;;;;;;;;;17.70;40.30;16.30;101048.00;;;;5048242;28;19912;-66
2022/11/19 11:30:30;;;;;;;;;;;17.70;40.20;16.30;101055.00;;;;5045930;28;20338;-74
2022/11/19 11:32:55;;;;;;;;;;;17.60;40.20;16.30;101048.00;;;;5030126;28;19959;-65
2022/11/19 11:35:32;;;;;;;;;;;17.70;40.20;16.40;101054.00;;;;5047963;28;20259;-66
2022/11/19 11:38:01;;;;;;;;;;;17.70;40.20;16.40;101046.00;;;;5009024;28;19920;-66
2022/11/19 11:40:27;;;;;;;;;;;17.70;40.20;16.30;101044.00;;;;5010813;28;19944;-66
2022/11/19 11:42:53;;;;;;;;;;;17.60;40.10;16.40;101040.00;;;;5036227;28;19916;-66
2022/11/19 11:45:26;;;;;;;;;;;17.70;40.10;16.40;101052.00;;;;5052300;28;19920;-66
2022/11/19 11:47:51;;;;;;;;;;;17.70;40.10;16.40;101045.00;;;;5030069;28;19920;-66
2022/11/19 11:50:20;;;;;;;;;;;17.70;40.10;16.40;101040.00;;;;5036215;28;19920;-66
2022/11/19 11:52:47;;;;;;;;;;;17.70;40.10;16.40;101034.00;;;;5030014;28;20310;-66
2022/11/19 11:55:22;;;;;;;;;;;17.70;40.10;16.40;101047.00;;;;5032762;28;20339;-66
2022/11/19 11:58:01;;;;;;;;;;;17.70;40.10;16.40;101030.00;;;;5050256;28;20437;-66
2022/11/19 12:00:36;;;;;;;;;;;17.70;40.00;16.40;101031.00;;;;5024633;28;19919;-66
2022/11/19 12:03:08;;;;;;;;;;;17.90;40.10;16.40;101033.00;;;;5049054;28;19924;-66
2022/11/19 12:06:00;;;;;;;;;;;17.70;40.00;16.40;101025.00;;;;5044248;28;19913;-66
2022/11/19 12:08:56;;;;;;;;;;;17.70;40.00;16.40;101033.00;;;;5042935;28;19917;-65
2022/11/19 12:11:52;;;;;;;;;;;17.70;40.00;16.40;101024.00;;;;5052262;28;19952;-66
2022/11/19 12:14:23;;;;;;;;;;;17.70;39.90;16.40;101023.00;;;;5043697;28;20274;-66